Time;durP1;ratioP1;P1;durP2;ratioP2;P2;SDS_P1;SDS_P2;PMS_P1;PMS_P2;Temp;Humidity;BMP_temperature;BMP_pressure;BME280_temperature;BME280_humidity;BME280_pressure;Samples;Min_cycle;Max_cycle;Signal;HPM_P1;HPM_P2
2021/10/03 00:02:05;;;;;;;3.17;1.75;;;16.60;99.90;;;;;;5070398;28;20255;-74
2021/10/03 00:04:32;;;;;;;2.35;1.60;;;16.70;99.90;;;;;;5085798;28;20214;-74
2021/10/03 00:07:00;;;;;;;3.45;1.67;;;16.70;99.90;;;;;;5073905;28;20201;-73
2021/10/03 00:09:26;;;;;;;1.98;1.60;;;16.70;99.90;;;;;;5072694;28;20216;-73
2021/10/03 00:11:53;;;;;;;2.13;1.80;;;16.70;99.90;;;;;;5070926;28;20277;-73
2021/10/03 00:14:19;;;;;;;;;;;16.70;99.90;;;;;;5070290;28;20572;-73
2021/10/03 00:16:45;;;;;;;;;;;16.70;99.90;;;;;;5071218;28;19905;-73
2021/10/03 00:19:11;;;;;;;;;;;16.70;99.90;;;;;;5069792;28;20277;-74
2021/10/03 00:21:37;;;;;;;;;;;16.70;99.90;;;;;;5068986;28;19920;-73
2021/10/03 00:24:02;;;;;;;;;;;16.70;99.90;;;;;;5070972;28;19916;-73
2021/10/03 00:26:28;;;;;;;;;;;16.80;99.90;;;;;;5067597;28;19920;-73
2021/10/03 00:28:54;;;;;;;;;;;16.80;99.90;;;;;;5068801;28;20607;-73
2021/10/03 00:31:19;;;;;;;;;;;16.80;99.90;;;;;;5084110;28;19955;-73
2021/10/03 00:33:45;;;;;;;;;;;16.80;99.90;;;;;;5050111;28;20404;-72
2021/10/03 00:36:10;;;;;;;;;;;16.80;99.90;;;;;;5086031;28;20369;-72
2021/10/03 00:38:36;;;;;;;;;;;16.80;99.90;;;;;;5050335;28;19912;-73
2021/10/03 00:41:02;;;;;;;;;;;16.80;99.90;;;;;;5069546;28;19919;-72
2021/10/03 00:43:27;;;;;;;;;;;16.80;99.90;;;;;;5084087;28;19940;-73
2021/10/03 00:45:53;;;;;;;;;;;16.80;99.90;;;;;;5071097;28;19909;-72
2021/10/03 00:48:19;;;;;;;;;;;16.80;99.90;;;;;;5049516;28;20284;-73
2021/10/03 00:50:45;;;;;;;;;;;16.80;99.90;;;;;;5069115;28;19908;-72
2021/10/03 00:53:11;;;;;;;;;;;16.80;99.90;;;;;;5070923;28;20035;-73
2021/10/03 00:55:37;;;;;;;;;;;16.80;99.90;;;;;;5049568;28;19919;-73
2021/10/03 00:58:03;;;;;;;;;;;16.80;99.90;;;;;;5069676;28;19916;-72
2021/10/03 01:00:30;;;;;;;;;;;16.80;99.90;;;;;;5087621;28;20385;-73
2021/10/03 01:02:56;;;;;;;;;;;16.70;99.90;;;;;;5070737;28;19961;-73
2021/10/03 01:05:22;;;;;;;;;;;16.70;99.90;;;;;;5069235;28;19920;-75
2021/10/03 01:07:47;;;;;;;;;;;16.70;99.90;;;;;;5049392;28;19913;-74
2021/10/03 01:10:16;;;;;;;;;;;16.70;99.90;;;;;;5083578;28;19908;-71
2021/10/03 01:12:41;;;;;;;;;;;16.70;99.90;;;;;;5072375;28;19913;-73
2021/10/03 01:15:08;;;;;;;;;;;16.60;99.90;;;;;;5073679;28;20551;-73
2021/10/03 01:17:33;;;;;;;;;;;16.60;99.90;;;;;;5051716;28;19912;-72
2021/10/03 01:19:59;;;;;;;;;;;16.60;99.90;;;;;;5068389;28;19916;-73
2021/10/03 01:22:25;;;;;;;;;;;16.60;99.90;;;;;;5050910;28;20333;-73
2021/10/03 01:24:52;;;;;;;;;;;16.60;99.90;;;;;;5051727;28;19920;-73
2021/10/03 01:27:19;;;;;;;;;;;16.60;99.90;;;;;;5049521;28;20008;-74
2021/10/03 01:29:45;;;;;;;;;;;16.50;99.90;;;;;;5070016;28;20341;-73
2021/10/03 01:32:10;;;;;;;;;;;16.50;99.90;;;;;;5069939;28;19919;-72
2021/10/03 01:34:36;;;;;;;;;;;16.50;99.90;;;;;;5068429;28;19916;-72
2021/10/03 01:37:01;;;;;;;;;;;16.40;99.90;;;;;;5073405;28;19943;-72
2021/10/03 01:39:27;;;;;;;;;;;16.40;99.90;;;;;;5069480;28;20003;-72
2021/10/03 01:41:53;;;;;;;;;;;16.40;99.90;;;;;;5051284;28;19912;-71
2021/10/03 01:44:18;;;;;;;;;;;16.30;99.90;;;;;;5069868;28;19919;-71
2021/10/03 01:46:44;;;;;;;;;;;16.30;99.90;;;;;;5074711;28;20353;-71
2021/10/03 01:49:10;;;;;;;;;;;16.20;99.90;;;;;;5068792;28;19954;-72
2021/10/03 01:51:35;;;;;;;;;;;16.20;99.90;;;;;;5071248;28;20506;-72
2021/10/03 01:54:01;;;;;;;;;;;16.10;99.90;;;;;;5070255;28;19958;-71
2021/10/03 01:56:29;;;;;;;17.80;2.22;;;16.10;99.90;;;;;;5069591;28;20156;-71
2021/10/03 01:59:01;;;;;;;20.90;2.65;;;16.00;99.90;;;;;;5070504;28;20182;-72
2021/10/03 02:01:31;;;;;;;20.00;2.55;;;16.00;99.90;;;;;;5054623;28;20199;-71
2021/10/03 02:03:57;;;;;;;19.00;2.60;;;16.00;99.90;;;;;;5054191;28;20210;-72
2021/10/03 02:06:24;;;;;;;17.10;2.72;;;15.90;99.90;;;;;;5069523;28;20359;-71
2021/10/03 02:08:51;;;;;;;;;;;15.90;99.90;;;;;;5050621;28;20697;-72
2021/10/03 02:11:16;;;;;;;;;;;15.80;99.90;;;;;;5071387;28;20353;-72
2021/10/03 02:13:42;;;;;;;;;;;15.80;99.90;;;;;;5071214;28;19919;-71
2021/10/03 02:16:07;;;;;;;;;;;15.80;99.90;;;;;;5066236;28;19919;-73
2021/10/03 02:18:39;;;;;;;;;;;15.80;99.90;;;;;;5048875;28;19912;-72
2021/10/03 02:21:06;;;;;;;;;;;15.70;99.90;;;;;;5049244;28;19912;-73
2021/10/03 02:23:32;;;;;;;;;;;15.70;99.90;;;;;;5050697;28;19916;-74
2021/10/03 02:25:57;;;;;;;;;;;15.60;99.90;;;;;;5053374;28;19926;-73
2021/10/03 02:28:24;;;;;;;;;;;15.70;99.90;;;;;;5055552;28;20003;-72
2021/10/03 02:30:51;;;;;;;;;;;15.60;99.90;;;;;;5053732;28;19920;-73
2021/10/03 02:33:17;;;;;;;;;;;15.60;99.90;;;;;;5072148;28;19912;-73
2021/10/03 02:35:43;;;;;;;;;;;15.60;99.90;;;;;;5071588;28;19919;-72
2021/10/03 02:38:10;;;;;;;;;;;15.60;99.90;;;;;;5080229;28;19957;-72
2021/10/03 02:40:36;;;;;;;;;;;15.60;99.90;;;;;;5071723;28;19924;-71
2021/10/03 02:43:05;;;;;;;;;;;15.50;99.90;;;;;;5076386;28;19908;-73
2021/10/03 02:45:32;;;;;;;;;;;15.50;99.90;;;;;;5079283;28;20361;-72
2021/10/03 02:47:57;;;;;;;;;;;15.40;99.90;;;;;;5073692;28;19919;-71
2021/10/03 02:50:23;;;;;;;;;;;15.30;99.90;;;;;;5073278;28;19908;-72
2021/10/03 02:52:49;;;;;;;;;;;15.20;99.90;;;;;;5077603;28;19912;-71
2021/10/03 02:55:14;;;;;;;;;;;15.10;99.90;;;;;;5054950;28;19944;-74
2021/10/03 02:57:40;;;;;;;;;;;15.10;99.90;;;;;;5068944;28;19998;-73
2021/10/03 03:00:07;;;;;;;17.33;2.42;;;15.00;99.90;;;;;;5076145;28;20184;-72
2021/10/03 03:02:33;;;;;;;9.77;1.85;;;14.90;99.90;;;;;;5075559;28;20555;-72
2021/10/03 03:04:59;;;;;;;14.45;2.17;;;14.90;99.90;;;;;;5053082;28;20210;-73
2021/10/03 03:07:24;;;;;;;19.17;1.73;;;14.90;99.90;;;;;;5071052;28;20187;-73
2021/10/03 03:09:50;;;;;;;19.50;2.17;;;14.90;99.90;;;;;;5084221;28;20238;-72
2021/10/03 03:12:16;;;;;;;;;;;14.90;99.90;;;;;;5056872;28;22728;-73
2021/10/03 03:14:41;;;;;;;;;;;14.90;99.90;;;;;;5061796;28;20022;-72
2021/10/03 03:17:15;;;;;;;;;;;14.90;99.90;;;;;;5075209;28;20028;-73
2021/10/03 03:19:40;;;;;;;;;;;14.90;99.90;;;;;;5076777;28;20002;-72
2021/10/03 03:22:06;;;;;;;;;;;14.80;99.90;;;;;;5062851;28;20003;-72
2021/10/03 03:24:32;;;;;;;;;;;14.80;99.90;;;;;;5071411;28;20137;-72
2021/10/03 03:26:57;;;;;;;;;;;14.80;99.90;;;;;;5032576;28;19928;-72
2021/10/03 03:29:24;;;;;;;;;;;14.80;99.90;;;;;;5046356;28;19920;-72
2021/10/03 03:31:49;;;;;;;;;;;14.70;99.90;;;;;;5061870;28;19991;-72
2021/10/03 03:34:15;;;;;;;;;;;14.70;99.90;;;;;;5064659;28;19996;-73
2021/10/03 03:36:40;;;;;;;;;;;14.70;99.90;;;;;;5064390;28;20014;-74
2021/10/03 03:39:06;;;;;;;;;;;14.60;99.90;;;;;;5065738;28;19913;-73
2021/10/03 03:41:31;;;;;;;;;;;14.60;99.90;;;;;;5046058;28;19908;-73
2021/10/03 03:43:57;;;;;;;;;;;14.50;99.90;;;;;;5048003;28;19916;-74
2021/10/03 03:46:22;;;;;;;;;;;14.50;99.90;;;;;;5030344;28;19939;-71
2021/10/03 03:48:48;;;;;;;;;;;14.50;99.90;;;;;;5062579;28;19912;-71
2021/10/03 03:51:13;;;;;;;;;;;14.40;99.90;;;;;;5065402;28;19912;-69
2021/10/03 03:53:39;;;;;;;;;;;14.40;99.90;;;;;;5062602;28;19912;-70
2021/10/03 03:56:04;;;;;;;;;;;14.30;99.90;;;;;;5066138;28;19927;-70
2021/10/03 03:58:30;;;;;;;;;;;14.30;99.90;;;;;;5063835;28;19930;-73
2021/10/03 04:00:55;;;;;;;;;;;14.20;99.90;;;;;;5048590;28;19961;-72
2021/10/03 04:03:21;;;;;;;;;;;14.20;99.90;;;;;;5045666;28;20384;-71
2021/10/03 04:05:46;;;;;;;;;;;14.20;99.90;;;;;;5061627;28;19959;-72
2021/10/03 04:08:12;;;;;;;;;;;14.10;99.90;;;;;;5031124;28;19920;-73
2021/10/03 04:10:38;;;;;;;;;;;14.10;99.90;;;;;;5063278;28;20679;-73
2021/10/03 04:13:03;;;;;;;;;;;14.10;99.90;;;;;;5047669;28;19952;-72
2021/10/03 04:15:29;;;;;;;;;;;14.10;99.90;;;;;;5047816;28;19959;-72
2021/10/03 04:17:54;;;;;;;;;;;14.10;99.90;;;;;;5060562;28;19916;-72
2021/10/03 04:20:20;;;;;;;;;;;14.00;99.90;;;;;;5066108;28;19909;-72
2021/10/03 04:22:45;;;;;;;;;;;14.00;99.90;;;;;;5062765;28;19916;-71
2021/10/03 04:25:11;;;;;;;;;;;14.00;99.90;;;;;;5057991;28;20343;-70
2021/10/03 04:27:36;;;;;;;;;;;13.90;99.90;;;;;;5061389;28;20322;-73
2021/10/03 04:30:05;;;;;;;;;;;13.90;99.90;;;;;;5101098;27;19908;-70
2021/10/03 04:32:31;;;;;;;;;;;13.90;99.90;;;;;;5072526;28;20267;-71
2021/10/03 04:34:56;;;;;;;;;;;13.90;99.90;;;;;;5069074;28;20007;-71
2021/10/03 04:37:23;;;;;;;;;;;13.80;99.90;;;;;;5067285;28;19916;-71
2021/10/03 04:39:50;;;;;;;;;;;13.80;99.90;;;;;;5070052;28;19912;-69
2021/10/03 04:42:15;;;;;;;;;;;13.80;99.90;;;;;;5065378;28;19912;-70
2021/10/03 04:44:41;;;;;;;;;;;13.80;99.90;;;;;;5106575;27;19938;-70
2021/10/03 04:47:06;;;;;;;;;;;13.70;99.90;;;;;;5069091;28;19916;-70
2021/10/03 04:49:32;;;;;;;;;;;13.70;99.90;;;;;;5078518;28;19912;-71
2021/10/03 04:51:57;;;;;;;;;;;13.70;99.90;;;;;;5078087;28;20377;-70
2021/10/03 04:54:23;;;;;;;;;;;13.70;99.90;;;;;;5069414;28;19990;-71
2021/10/03 04:56:49;;;;;;;;;;;13.70;99.90;;;;;;5069542;28;19916;-71
2021/10/03 04:59:15;;;;;;;;;;;13.70;99.90;;;;;;5082190;28;19912;-71
2021/10/03 05:01:40;;;;;;;;;;;13.70;99.90;;;;;;5070108;28;19908;-71
2021/10/03 05:04:06;;;;;;;;;;;13.70;99.90;;;;;;5075247;28;20361;-71
2021/10/03 05:06:31;;;;;;;;;;;13.70;99.90;;;;;;5069623;28;20041;-70
2021/10/03 05:08:57;;;;;;;;;;;13.70;99.90;;;;;;5069430;28;19951;-70
2021/10/03 05:11:22;;;;;;;;;;;13.70;99.90;;;;;;5068004;28;19991;-71
2021/10/03 05:13:48;;;;;;;;;;;13.70;99.90;;;;;;5073484;28;19920;-71
2021/10/03 05:16:13;;;;;;;;;;;13.70;99.90;;;;;;5070661;28;20380;-71
2021/10/03 05:18:39;;;;;;;;;;;13.70;99.90;;;;;;5075384;28;19908;-70
2021/10/03 05:21:04;;;;;;;;;;;13.70;99.90;;;;;;5073131;28;19920;-71
2021/10/03 05:23:30;;;;;;;;;;;13.70;99.90;;;;;;5076571;28;19999;-71
2021/10/03 05:25:56;;;;;;;;;;;13.70;99.90;;;;;;5065707;28;19931;-71
2021/10/03 05:28:21;;;;;;;;;;;13.70;99.90;;;;;;5062608;28;19912;-70
2021/10/03 05:30:47;;;;;;;;;;;13.70;99.90;;;;;;5060795;28;19908;-72
2021/10/03 05:33:12;;;;;;;;;;;13.70;99.90;;;;;;5061822;28;19908;-70
2021/10/03 05:35:38;;;;;;;;;;;13.70;99.90;;;;;;5045038;28;20353;-70
2021/10/03 05:38:03;;;;;;;;;;;13.70;99.90;;;;;;5061726;28;19917;-71
2021/10/03 05:40:30;;;;;;;;;;;13.70;99.90;;;;;;5064788;28;19913;-70
2021/10/03 05:42:55;;;;;;;;;;;13.70;99.90;;;;;;5042844;28;19915;-70
2021/10/03 05:45:21;;;;;;;;;;;13.60;99.90;;;;;;5046596;28;19916;-69
2021/10/03 05:47:47;;;;;;;;;;;13.70;99.90;;;;;;5059644;28;19908;-69
2021/10/03 05:50:14;;;;;;;;;;;13.70;99.90;;;;;;5044223;28;20365;-70
2021/10/03 05:52:39;;;;;;;;;;;13.70;99.90;;;;;;5063102;28;19918;-71
2021/10/03 05:55:05;;;;;;;;;;;13.70;99.90;;;;;;5063057;28;19913;-70
2021/10/03 05:57:31;;;;;;;;;;;13.70;99.90;;;;;;5063832;28;20281;-70
2021/10/03 05:59:56;;;;;;;;;;;13.60;99.90;;;;;;5043844;28;19967;-72
2021/10/03 06:02:22;;;;;;;;;;;13.70;99.90;;;;;;5046915;28;20014;-69
2021/10/03 06:04:47;;;;;;;;;;;13.70;99.90;;;;;;5069602;28;19918;-72
2021/10/03 06:07:13;;;;;;;;;;;13.70;99.90;;;;;;5068636;28;20003;-70
2021/10/03 06:09:38;;;;;;;;;;;13.70;99.90;;;;;;5071564;28;19908;-71
2021/10/03 06:12:05;;;;;;;;;;;13.70;99.90;;;;;;5051815;28;19912;-70
2021/10/03 06:14:30;;;;;;;;;;;13.70;99.90;;;;;;5070694;28;20043;-69
2021/10/03 06:16:56;;;;;;;;;;;13.70;99.90;;;;;;5066435;28;20003;-70
2021/10/03 06:19:21;;;;;;;;;;;13.70;99.90;;;;;;5065702;28;20393;-69
2021/10/03 06:21:47;;;;;;;;;;;13.70;99.90;;;;;;5049011;28;19915;-69
2021/10/03 06:24:12;;;;;;;;;;;13.70;99.90;;;;;;5063939;28;19970;-69
2021/10/03 06:26:38;;;;;;;;;;;13.70;99.90;;;;;;5056700;28;19913;-71
2021/10/03 06:29:04;;;;;;;;;;;13.70;99.90;;;;;;5058469;28;19907;-70
2021/10/03 06:31:30;;;;;;;;;;;13.70;99.90;;;;;;5075858;28;20024;-71
2021/10/03 06:33:55;;;;;;;;;;;13.70;99.90;;;;;;5057874;28;20361;-71
2021/10/03 06:36:21;;;;;;;;;;;13.70;99.90;;;;;;5092292;28;19909;-72
2021/10/03 06:38:47;;;;;;;;;;;13.70;99.90;;;;;;5075477;28;19983;-70
2021/10/03 06:41:12;;;;;;;;;;;13.70;99.90;;;;;;5082938;28;19920;-70
2021/10/03 06:43:41;;;;;;;;;;;13.70;99.90;;;;;;5055950;28;19923;-70
2021/10/03 06:46:07;;;;;;;;;;;13.70;99.90;;;;;;5054443;28;19981;-71
2021/10/03 06:48:32;;;;;;;;;;;13.60;99.90;;;;;;5053347;28;19912;-70
2021/10/03 06:50:58;;;;;;;;;;;13.70;99.90;;;;;;5075481;28;19916;-70
2021/10/03 06:53:25;;;;;;;;;;;13.70;99.90;;;;;;5069102;28;19912;-69
2021/10/03 06:55:50;;;;;;;;;;;13.70;99.90;;;;;;5056897;28;19941;-71
2021/10/03 06:58:16;;;;;;;;;;;13.70;99.90;;;;;;5086570;28;19916;-69
2021/10/03 07:00:41;;;;;;;;;;;13.70;99.90;;;;;;5059963;28;20029;-70
2021/10/03 07:03:07;;;;;;;;;;;13.70;99.90;;;;;;5070454;28;19966;-70
2021/10/03 07:05:33;;;;;;;;;;;13.60;99.90;;;;;;5077709;28;19909;-69
2021/10/03 07:07:58;;;;;;;;;;;13.70;99.90;;;;;;5073036;28;19912;-69
2021/10/03 07:10:24;;;;;;;;;;;13.70;99.90;;;;;;5082238;28;20392;-70
2021/10/03 07:12:49;;;;;;;;;;;13.60;99.90;;;;;;5072352;28;20238;-70
2021/10/03 07:15:15;;;;;;;;;;;13.60;99.90;;;;;;5054596;28;20373;-69
2021/10/03 07:17:41;;;;;;;;;;;13.70;99.90;;;;;;5074842;28;20036;-70
2021/10/03 07:20:07;;;;;;;;;;;13.70;99.90;;;;;;5079635;28;19909;-70
2021/10/03 07:22:32;;;;;;;;;;;13.70;99.90;;;;;;5058880;28;19912;-69
2021/10/03 07:24:58;;;;;;;;;;;13.70;99.90;;;;;;5090052;28;19938;-68
2021/10/03 07:27:23;;;;;;;;;;;13.70;99.90;;;;;;5071277;28;19920;-72
2021/10/03 07:29:49;;;;;;;;;;;13.80;99.90;;;;;;5070056;28;20075;-71
2021/10/03 07:32:16;;;;;;;;;;;13.80;99.90;;;;;;5082745;28;19912;-70
2021/10/03 07:34:42;;;;;;;;;;;13.80;99.90;;;;;;5085435;28;20297;-70
2021/10/03 07:37:07;;;;;;;;;;;13.80;99.90;;;;;;5058157;28;19912;-70
2021/10/03 07:39:34;;;;;;;;;;;13.80;99.90;;;;;;5055463;28;19908;-71
2021/10/03 07:42:00;;;;;;;;;;;13.80;99.90;;;;;;5076728;28;19931;-71
2021/10/03 07:44:26;;;;;;;;;;;13.80;99.90;;;;;;5054729;28;19916;-70
2021/10/03 07:46:51;;;;;;;;;;;13.80;99.90;;;;;;5075804;28;20335;-71
2021/10/03 07:49:17;;;;;;;;;;;13.80;99.90;;;;;;5098835;28;20039;-70
2021/10/03 07:51:42;;;;;;;;;;;13.80;99.90;;;;;;5073741;28;19952;-71
2021/10/03 07:54:08;;;;;;;;;;;13.80;99.90;;;;;;5066257;28;19989;-70
2021/10/03 07:56:34;;;;;;;;;;;13.80;99.90;;;;;;5072858;28;20007;-71
2021/10/03 07:58:59;;;;;;;;;;;13.80;99.90;;;;;;5075684;28;19995;-71
2021/10/03 08:01:25;;;;;;;;;;;13.80;99.90;;;;;;5074161;28;19912;-71
2021/10/03 08:03:50;;;;;;;;;;;13.80;99.90;;;;;;5078760;28;19915;-71
2021/10/03 08:06:17;;;;;;;;;;;13.70;99.90;;;;;;5053059;28;19923;-70
2021/10/03 08:08:43;;;;;;;;;;;13.80;99.90;;;;;;5074249;28;20037;-71
2021/10/03 08:11:09;;;;;;;;;;;13.70;99.90;;;;;;5079047;28;20023;-71
2021/10/03 08:13:34;;;;;;;;;;;13.70;99.90;;;;;;5074748;28;20007;-71
2021/10/03 08:16:00;;;;;;;;;;;13.80;99.90;;;;;;5073451;28;19946;-70
2021/10/03 08:18:25;;;;;;;;;;;13.80;99.90;;;;;;5081799;28;20007;-70
2021/10/03 08:20:51;;;;;;;;;;;13.80;99.90;;;;;;5078625;28;19912;-70
2021/10/03 08:23:17;;;;;;;;;;;13.80;99.90;;;;;;5073871;28;19908;-70
2021/10/03 08:25:43;;;;;;;;;;;13.70;99.90;;;;;;5075366;28;20528;-71
2021/10/03 08:28:08;;;;;;;;;;;13.70;99.90;;;;;;5070533;28;20025;-70
2021/10/03 08:30:34;;;;;;;;;;;13.70;99.90;;;;;;5068695;28;19997;-69
2021/10/03 08:32:59;;;;;;;;;;;13.70;99.90;;;;;;5071361;28;19908;-70
2021/10/03 08:35:25;;;;;;;;;;;13.60;99.90;;;;;;5068716;28;19916;-70
2021/10/03 08:37:51;;;;;;;;;;;13.70;99.90;;;;;;5067158;28;19912;-71
2021/10/03 08:40:16;;;;;;;;;;;13.70;99.90;;;;;;5088116;28;20276;-70
2021/10/03 08:42:42;;;;;;;;;;;13.70;99.90;;;;;;5053192;28;20026;-70
2021/10/03 08:45:08;;;;;;;;;;;13.70;99.90;;;;;;5067641;28;19915;-70
2021/10/03 08:47:37;;;;;;;;;;;13.70;99.90;;;;;;5072196;28;20703;-70
2021/10/03 08:50:07;;;;;;;;;;;13.70;99.90;;;;;;5070414;28;20357;-69
2021/10/03 08:52:33;;;;;;;;;;;13.70;99.90;;;;;;5089434;28;19923;-69
2021/10/03 08:54:58;;;;;;;;;;;13.70;99.90;;;;;;5088995;28;20322;-69
2021/10/03 08:57:24;;;;;;;;;;;13.80;99.90;;;;;;5085927;28;19912;-71
2021/10/03 09:00:06;;;;;;;;;;;13.80;99.90;;;;;;5074545;28;20272;-69
2021/10/03 09:02:52;;;;;;;;;;;13.90;99.90;;;;;;5077962;28;19914;-70
2021/10/03 09:05:18;;;;;;;;;;;13.80;99.90;;;;;;5073415;28;19923;-70
2021/10/03 09:08:02;;;;;;;;;;;13.90;99.90;;;;;;5069525;28;19912;-71
2021/10/03 09:10:41;;;;;;;;;;;13.90;99.90;;;;;;5042795;28;19916;-71
2021/10/03 09:13:07;;;;;;;;;;;13.90;99.90;;;;;;5072828;28;20165;-71
2021/10/03 09:15:33;;;;;;;;;;;13.90;99.90;;;;;;5068835;28;20032;-70
2021/10/03 09:17:59;;;;;;;;;;;13.90;99.90;;;;;;5070955;28;19913;-71
2021/10/03 09:20:26;;;;;;;;;;;13.90;99.90;;;;;;5051284;28;20065;-70
2021/10/03 09:22:51;;;;;;;;;;;13.80;99.90;;;;;;5067278;28;19912;-70
2021/10/03 09:25:29;;;;;;;;;;;13.80;99.90;;;;;;5066043;28;20392;-70
2021/10/03 09:27:55;;;;;;;;;;;13.80;99.90;;;;;;5060134;28;19919;-71
2021/10/03 09:30:20;;;;;;;;;;;13.80;99.90;;;;;;5064657;28;20711;-72
2021/10/03 09:32:53;;;;;;;;;;;13.90;99.90;;;;;;5061608;28;19939;-71
2021/10/03 09:35:19;;;;;;;;;;;13.90;99.90;;;;;;5044522;28;20545;-71
2021/10/03 09:37:46;;;;;;;;;;;13.90;99.90;;;;;;5061425;28;19968;-70
2021/10/03 09:40:17;;;;;;;;;;;13.90;99.90;;;;;;5063449;28;19939;-72
2021/10/03 09:43:04;;;;;;;;;;;13.90;99.90;;;;;;5062622;28;19958;-71
2021/10/03 09:45:31;;;;;;;;;;;14.00;99.90;;;;;;5043927;28;20452;-71
2021/10/03 09:48:03;;;;;;;;;;;14.00;99.90;;;;;;5061182;28;19926;-72
2021/10/03 09:50:30;;;;;;;;;;;14.00;99.90;;;;;;5062505;28;20403;-73
2021/10/03 09:52:56;;;;;;;;;;;14.10;99.90;;;;;;5062373;28;20131;-72
2021/10/03 09:55:25;;;;;;;;;;;14.10;99.90;;;;;;5063122;28;20042;-71
2021/10/03 09:57:51;;;;;;;;;;;14.10;99.90;;;;;;5064291;28;19912;-73
2021/10/03 10:00:17;;;;;;;;;;;14.20;99.90;;;;;;5061060;28;19966;-72
2021/10/03 10:02:43;;;;;;;;;;;14.20;99.90;;;;;;5063254;28;19912;-71
2021/10/03 10:05:09;;;;;;;;;;;14.20;99.90;;;;;;5044766;28;19920;-70
2021/10/03 10:07:35;;;;;;;;;;;14.20;99.90;;;;;;5056755;28;20509;-72
2021/10/03 10:10:01;;;;;;;;;;;14.20;99.90;;;;;;5062923;28;20639;-71
2021/10/03 10:12:27;;;;;;;;;;;14.20;99.90;;;;;;5060319;28;19916;-72
2021/10/03 10:15:00;;;;;;;;;;;14.10;99.90;;;;;;5063002;28;19940;-71
2021/10/03 10:17:25;;;;;;;;;;;14.10;99.90;;;;;;5060856;28;19912;-72
2021/10/03 10:19:51;;;;;;;;;;;14.10;99.90;;;;;;5062272;28;19935;-72
2021/10/03 10:22:20;;;;;;;;;;;14.10;99.90;;;;;;5061806;28;19962;-71
2021/10/03 10:24:46;;;;;;;;;;;14.10;99.90;;;;;;5061488;28;19956;-72
2021/10/03 10:27:20;;;;;;;;;;;14.10;99.90;;;;;;5044874;28;19954;-72
2021/10/03 10:29:59;;;;;;;;;;;14.20;99.90;;;;;;5059715;28;20412;-73
2021/10/03 10:32:26;;;;;;;;;;;14.20;99.90;;;;;;5062743;28;19908;-71
2021/10/03 10:35:07;;;;;;;;;;;14.10;99.90;;;;;;5062071;28;19913;-71
2021/10/03 10:37:51;;;;;;;;;;;14.10;99.90;;;;;;5060207;28;19912;-72
2021/10/03 10:42:48;;;;;;;;;;;14.20;99.90;;;;;;5062674;28;20284;-70
2021/10/03 10:45:40;;;;;;;;;;;14.10;99.90;;;;;;5063915;28;19916;-69
2021/10/03 10:48:06;;;;;;;;;;;14.20;99.90;;;;;;5064071;28;20809;-68
2021/10/03 10:50:32;;;;;;;;;;;14.10;99.90;;;;;;5065582;28;19996;-70
2021/10/03 10:53:16;;;;;;;;;;;14.10;99.90;;;;;;5064416;28;19919;-71
2021/10/03 10:55:42;;;;;;;;;;;14.20;99.90;;;;;;5062639;28;20332;-71
2021/10/03 10:58:08;;;;;;;;;;;14.20;99.90;;;;;;5064514;28;19916;-72
2021/10/03 11:00:45;;;;;;;;;;;14.20;99.90;;;;;;5046274;28;19919;-70
2021/10/03 11:03:11;;;;;;;;;;;14.20;99.90;;;;;;5064632;28;19985;-74
2021/10/03 11:05:40;;;;;;;;;;;14.20;99.90;;;;;;5047143;28;19935;-71
2021/10/03 11:08:13;;;;;;;;;;;14.20;99.90;;;;;;5061134;28;20332;-71
2021/10/03 11:10:57;;;;;;;;;;;14.10;99.90;;;;;;5063759;28;19967;-72
2021/10/03 11:13:37;;;;;;;;;;;14.10;99.90;;;;;;5063172;28;19912;-70
2021/10/03 11:16:21;;;;;;;;;;;14.00;99.90;;;;;;5066498;28;19916;-70
2021/10/03 11:18:53;;;;;;;;;;;14.00;99.90;;;;;;5066419;28;20118;-72
2021/10/03 11:21:35;;;;;;;;;;;14.00;99.90;;;;;;5045912;28;19912;-71
2021/10/03 11:24:02;;;;;;;;;;;14.00;99.90;;;;;;5063875;28;19913;-69
2021/10/03 11:26:42;;;;;;;;;;;13.90;99.90;;;;;;5069214;28;19928;-70
2021/10/03 11:29:08;;;;;;;;;;;13.90;99.90;;;;;;5070044;28;19912;-70
2021/10/03 11:31:36;;;;;;;;;;;13.90;99.90;;;;;;5103434;27;19916;-72
2021/10/03 11:34:05;;;;;;;;;;;13.90;99.90;;;;;;5072110;28;20284;-70
2021/10/03 11:36:31;;;;;;;;;;;13.90;99.90;;;;;;5104196;27;19912;-70
2021/10/03 11:38:59;;;;;;;;;;;13.90;99.90;;;;;;5076364;28;19922;-70
2021/10/03 11:41:25;;;;;;;;;;;13.90;99.90;;;;;;5070679;28;19908;-70
2021/10/03 11:43:51;;;;;;;;;;;13.90;99.90;;;;;;5074740;28;20343;-70
2021/10/03 11:46:16;;;;;;;;;;;13.90;99.90;;;;;;5069738;28;19943;-71
2021/10/03 11:48:42;;;;;;;;;;;13.90;99.90;;;;;;5074554;28;19999;-71
2021/10/03 11:51:07;;;;;;;;;;;13.90;99.90;;;;;;5079960;28;19912;-71
2021/10/03 11:53:41;;;;;;;;;;;13.90;99.90;;;;;;5079834;28;19912;-70
2021/10/03 11:56:08;;;;;;;;;;;13.90;99.90;;;;;;5080146;28;19919;-71
2021/10/03 11:58:35;;;;;;;;;;;13.80;99.90;;;;;;5066356;28;19991;-72
2021/10/03 12:01:06;;;;;;;;;;;13.80;99.90;;;;;;5069827;28;19944;-72
2021/10/03 12:03:33;;;;;;;;;;;13.80;99.90;;;;;;5069611;28;20281;-70
2021/10/03 12:06:00;;;;;;;;;;;13.80;99.90;;;;;;5068797;28;19912;-71
2021/10/03 12:08:27;;;;;;;;;;;13.80;99.90;;;;;;5076393;28;19940;-70
2021/10/03 12:11:02;;;;;;;;;;;13.80;99.90;;;;;;5102154;27;19916;-70
2021/10/03 12:13:35;;;;;;;;;;;13.80;99.90;;;;;;5068562;28;19912;-71
2021/10/03 12:16:07;;;;;;;;;;;13.80;99.90;;;;;;5104804;27;19970;-71
2021/10/03 12:18:37;;;;;;;;;;;13.70;99.90;;;;;;5078152;28;19914;-72
2021/10/03 12:21:14;;;;;;;;;;;13.70;99.90;;;;;;5070019;28;19912;-71
2021/10/03 12:23:43;;;;;;;;;;;13.70;99.90;;;;;;5101868;27;19956;-70
2021/10/03 12:26:11;;;;;;;;;;;13.70;99.90;;;;;;5068517;28;19986;-71
2021/10/03 12:28:49;;;;;;;;;;;13.70;99.90;;;;;;5057105;28;19969;-72
2021/10/03 12:31:32;;;;;;;;;;;13.70;99.90;;;;;;5058224;28;19912;-71
2021/10/03 12:33:57;;;;;;;;;;;13.70;99.90;;;;;;5056283;28;19916;-71
2021/10/03 12:36:23;;;;;;;;;;;13.70;99.90;;;;;;5072842;28;19915;-70
2021/10/03 12:38:48;;;;;;;;;;;13.70;99.90;;;;;;5051771;28;19943;-72
2021/10/03 12:41:14;;;;;;;;;;;13.80;99.90;;;;;;5090285;28;19918;-71
2021/10/03 12:43:50;;;;;;;;;;;13.70;99.90;;;;;;5054721;28;19961;-71
2021/10/03 12:46:15;;;;;;;;;;;13.80;99.90;;;;;;5074192;28;19919;-72
2021/10/03 12:48:41;;;;;;;;;;;13.80;99.90;;;;;;5075907;28;19916;-71
2021/10/03 12:51:06;;;;;;;;;;;13.80;99.90;;;;;;5076435;28;20261;-70
2021/10/03 12:53:32;;;;;;;;;;;13.80;99.90;;;;;;5074827;28;19960;-71
2021/10/03 12:55:58;;;;;;;;;;;13.80;99.90;;;;;;5073510;28;19912;-71
2021/10/03 12:58:23;;;;;;;;;;;13.80;99.90;;;;;;5068470;28;20369;-72
2021/10/03 13:00:51;;;;;;;;;;;13.90;99.90;;;;;;5072850;28;19944;-71
2021/10/03 13:03:16;;;;;;;;;;;13.90;99.90;;;;;;5071785;28;19917;-71
2021/10/03 13:05:42;;;;;;;;;;;13.80;99.90;;;;;;5071147;28;20357;-71
2021/10/03 13:08:08;;;;;;;;;;;13.80;99.90;;;;;;5074180;28;19963;-73
2021/10/03 13:10:33;;;;;;;;;;;13.80;99.90;;;;;;5071267;28;19912;-71
2021/10/03 13:12:59;;;;;;;;;;;13.80;99.90;;;;;;5068623;28;19913;-71
2021/10/03 13:15:24;;;;;;;;;;;13.80;99.90;;;;;;5085888;28;19932;-72
2021/10/03 13:17:50;;;;;;;;;;;13.80;99.90;;;;;;5074693;28;19912;-73
2021/10/03 13:20:15;;;;;;;;;;;13.90;99.90;;;;;;5051205;28;20756;-71
2021/10/03 13:22:41;;;;;;;;;;;13.90;99.90;;;;;;5069173;28;19908;-71
2021/10/03 13:25:07;;;;;;;;;;;13.80;99.90;;;;;;5075986;28;19975;-72
2021/10/03 13:27:33;;;;;;;;;;;13.80;99.90;;;;;;5087222;28;19908;-72
2021/10/03 13:29:59;;;;;;;;;;;13.80;99.90;;;;;;5071424;28;20396;-73
2021/10/03 13:32:24;;;;;;;;;;;13.80;99.90;;;;;;5075898;28;19920;-72
2021/10/03 13:34:50;;;;;;;;;;;13.90;99.90;;;;;;5072007;28;19912;-71
2021/10/03 13:37:15;;;;;;;;;;;13.90;99.90;;;;;;5073727;28;19912;-71
2021/10/03 13:39:41;;;;;;;;;;;13.90;99.90;;;;;;5053363;28;20372;-71
2021/10/03 13:42:06;;;;;;;;;;;13.90;99.90;;;;;;5087635;28;20337;-72
2021/10/03 13:44:32;;;;;;;;;;;13.80;99.90;;;;;;5068777;28;19916;-71
2021/10/03 13:46:57;;;;;;;;;;;13.80;99.90;;;;;;5056057;28;19991;-72
2021/10/03 13:49:23;;;;;;;;;;;13.80;99.90;;;;;;5076882;28;19916;-70
2021/10/03 13:51:48;;;;;;;;;;;13.80;99.90;;;;;;5069900;28;19915;-72
2021/10/03 13:54:14;;;;;;;;;;;13.80;99.90;;;;;;5070751;28;19913;-71
2021/10/03 13:56:39;;;;;;;;;;;13.80;99.90;;;;;;5056499;28;20373;-71
2021/10/03 13:59:05;;;;;;;;;;;13.80;99.90;;;;;;5072849;28;19923;-70
2021/10/03 14:01:31;;;;;;;;;;;13.80;99.90;;;;;;5067857;28;19922;-71
2021/10/03 14:03:56;;;;;;;;;;;13.80;99.90;;;;;;5076207;28;19920;-72
2021/10/03 14:06:21;;;;;;;;;;;13.80;99.90;;;;;;5053022;28;19908;-72
2021/10/03 14:08:47;;;;;;;;;;;13.80;99.90;;;;;;5086960;28;19908;-72
2021/10/03 14:11:13;;;;;;;;;;;13.80;99.90;;;;;;5068608;28;19938;-72
2021/10/03 14:13:38;;;;;;;;;;;13.80;99.90;;;;;;5087189;28;19958;-72